Time;durP1;ratioP1;P1;durP2;ratioP2;P2;SDS_P1;SDS_P2;PMS_P1;PMS_P2;Temp;Humidity;BMP_temperature;BMP_pressure;BME280_temperature;BME280_humidity;BME280_pressure;Samples;Min_cycle;Max_cycle;Signal;HPM_P1;HPM_P2
2023/12/31 00:01:18;;;;;;;6.63;5.80;;;;;;;;;;5091860;28;20619;-83
2023/12/31 00:03:45;;;;;;;12.50;7.10;;;;;;;;;;5105448;28;20198;-84
2023/12/31 00:06:12;;;;;;;14.57;9.23;;;;;;;;;;5112365;28;20631;-84
2023/12/31 00:08:38;;;;;;;8.43;6.90;;;;;;;;;;5111821;28;20684;-84
2023/12/31 00:11:06;;;;;;;11.23;6.47;;;;;;;;;;5112727;28;20597;-84
2023/12/31 00:13:33;;;;;;;8.67;6.67;;;;;;;;;;5112262;28;20187;-84
2023/12/31 00:16:00;;;;;;;9.57;6.97;;;;;;;;;;5111193;28;20264;-84
2023/12/31 00:18:27;;;;;;;23.17;13.00;;;;;;;;;;5111353;28;20202;-85
2023/12/31 00:20:53;;;;;;;17.53;10.57;;;;;;;;;;5112385;28;20199;-85
2023/12/31 00:23:20;;;;;;;19.93;13.90;;;;;;;;;;5110911;28;20196;-84
2023/12/31 00:25:47;;;;;;;24.67;13.57;;;;;;;;;;5112120;28;20211;-84
2023/12/31 00:28:15;;;;;;;12.80;7.87;;;;;;;;;;5112312;28;20207;-85
2023/12/31 00:30:42;;;;;;;14.57;9.10;;;;;;;;;;5112906;28;20191;-84
2023/12/31 00:33:09;;;;;;;10.00;8.27;;;;;;;;;;5102161;28;20600;-84
2023/12/31 00:35:36;;;;;;;8.97;7.37;;;;;;;;;;5103183;28;20584;-84
2023/12/31 00:38:02;;;;;;;9.13;7.40;;;;;;;;;;5111750;28;20199;-84
2023/12/31 00:40:30;;;;;;;7.83;6.10;;;;;;;;;;5111430;28;20211;-84
2023/12/31 00:42:57;;;;;;;7.33;6.40;;;;;;;;;;5111117;28;20720;-85
2023/12/31 00:45:26;;;;;;;7.20;6.13;;;;;;;;;;5112451;28;20203;-85
2023/12/31 00:47:53;;;;;;;26.70;17.10;;;;;;;;;;5110657;28;20195;-84
2023/12/31 00:50:20;;;;;;;24.33;15.73;;;;;;;;;;5112065;28;20199;-84
2023/12/31 00:52:47;;;;;;;13.10;9.13;;;;;;;;;;5112383;28;20202;-84
2023/12/31 00:55:14;;;;;;;9.20;6.23;;;;;;;;;;5112183;28;20199;-85
2023/12/31 00:57:41;;;;;;;8.47;6.80;;;;;;;;;;5111813;28;20206;-84
2023/12/31 01:00:09;;;;;;;9.47;7.17;;;;;;;;;;5112012;28;20207;-84
2023/12/31 01:02:37;;;;;;;10.37;6.93;;;;;;;;;;5110234;28;20223;-84
2023/12/31 01:05:05;;;;;;;9.67;7.20;;;;;;;;;;5111437;28;20195;-84
2023/12/31 01:07:32;;;;;;;7.13;6.43;;;;;;;;;;5110594;28;20614;-84
2023/12/31 01:09:58;;;;;;;7.87;6.67;;;;;;;;;;5112090;28;20196;-84
2023/12/31 01:12:25;;;;;;;6.43;5.80;;;;;;;;;;5112048;28;20199;-85
2023/12/31 01:14:52;;;;;;;6.67;5.97;;;;;;;;;;5106087;28;20196;-84
2023/12/31 01:17:19;;;;;;;8.73;7.33;;;;;;;;;;5091727;28;20227;-84
2023/12/31 01:19:47;;;;;;;5.70;5.13;;;;;;;;;;5091652;28;20647;-84
2023/12/31 01:22:14;;;;;;;6.87;5.23;;;;;;;;;;5091616;28;20550;-84
2023/12/31 01:24:41;;;;;;;8.40;6.13;;;;;;;;;;5109775;28;20641;-84
2023/12/31 01:27:08;;;;;;;8.43;6.30;;;;;;;;;;5114138;28;20203;-84
2023/12/31 01:29:38;;;;;;;6.13;5.23;;;;;;;;;;5115496;28;20195;-85
2023/12/31 01:32:06;;;;;;;6.13;4.93;;;;;;;;;;5116015;28;20627;-84
2023/12/31 01:34:34;;;;;;;4.67;4.20;;;;;;;;;;5114915;28;20203;-85
2023/12/31 01:37:03;;;;;;;5.53;4.40;;;;;;;;;;5100914;28;20211;-85
2023/12/31 01:39:30;;;;;;;5.37;4.87;;;;;;;;;;5113808;28;20654;-84
2023/12/31 01:41:57;;;;;;;6.37;5.30;;;;;;;;;;5114269;28;20712;-84
2023/12/31 01:44:24;;;;;;;5.53;4.23;;;;;;;;;;5115108;28;20747;-85
2023/12/31 01:46:51;;;;;;;8.67;5.37;;;;;;;;;;5114912;28;20191;-84
2023/12/31 01:49:18;;;;;;;9.33;6.17;;;;;;;;;;5113764;28;20665;-84
2023/12/31 01:51:45;;;;;;;6.87;6.10;;;;;;;;;;5115108;28;20203;-85
2023/12/31 01:54:13;;;;;;;7.93;5.67;;;;;;;;;;5115446;28;20195;-84
2023/12/31 01:56:41;;;;;;;6.67;5.70;;;;;;;;;;5114765;28;20195;-85
2023/12/31 01:59:08;;;;;;;5.53;4.97;;;;;;;;;;5114676;28;20203;-85
2023/12/31 02:01:36;;;;;;;7.30;5.77;;;;;;;;;;5114865;28;20203;-85
2023/12/31 02:04:03;;;;;;;6.87;5.83;;;;;;;;;;5113539;28;20272;-85
2023/12/31 02:06:29;;;;;;;7.73;5.63;;;;;;;;;;5114454;28;20227;-84
2023/12/31 02:08:56;;;;;;;6.63;5.27;;;;;;;;;;5114494;28;20191;-85
2023/12/31 02:11:24;;;;;;;8.87;6.27;;;;;;;;;;5114450;28;20723;-85
2023/12/31 02:13:51;;;;;;;8.67;7.30;;;;;;;;;;5113066;28;20555;-84
2023/12/31 02:16:19;;;;;;;10.07;7.03;;;;;;;;;;5114283;28;20200;-85
2023/12/31 02:18:52;;;;;;;16.70;9.67;;;;;;;;;;5114652;28;20192;-85
2023/12/31 02:21:19;;;;;;;13.17;8.50;;;;;;;;;;5115148;28;20191;-85
2023/12/31 02:23:46;;;;;;;8.17;6.80;;;;;;;;;;5112851;28;20234;-84
2023/12/31 02:26:14;;;;;;;6.33;5.30;;;;;;;;;;5114444;28;20192;-85
2023/12/31 02:28:41;;;;;;;5.73;5.17;;;;;;;;;;5114087;28;20195;-84
2023/12/31 02:31:08;;;;;;;29.30;19.07;;;;;;;;;;5114340;28;20230;-84
2023/12/31 02:33:34;;;;;;;36.87;23.70;;;;;;;;;;5114167;28;20202;-84
2023/12/31 02:36:01;;;;;;;9.43;7.60;;;;;;;;;;5111343;28;20192;-84
2023/12/31 02:38:28;;;;;;;8.63;5.80;;;;;;;;;;5113270;28;20203;-84
2023/12/31 02:40:56;;;;;;;4.80;4.30;;;;;;;;;;5108156;28;21416;-84
2023/12/31 02:43:24;;;;;;;4.50;4.00;;;;;;;;;;5111899;28;20215;-85
2023/12/31 02:45:51;;;;;;;22.23;16.40;;;;;;;;;;5114110;28;20558;-84
2023/12/31 02:48:18;;;;;;;9.13;6.10;;;;;;;;;;5114036;28;20278;-84
2023/12/31 02:50:45;;;;;;;7.70;5.97;;;;;;;;;;5113436;28;20661;-84
2023/12/31 02:53:12;;;;;;;6.27;5.50;;;;;;;;;;5113299;28;20199;-84
2023/12/31 02:55:39;;;;;;;7.50;4.23;;;;;;;;;;5114310;28;20200;-84
2023/12/31 02:58:06;;;;;;;4.87;4.40;;;;;;;;;;5114238;28;20570;-84
2023/12/31 03:00:34;;;;;;;6.83;4.03;;;;;;;;;;5113868;28;20264;-84
2023/12/31 03:03:01;;;;;;;5.03;4.47;;;;;;;;;;5113353;28;20216;-84
2023/12/31 03:05:27;;;;;;;4.93;4.27;;;;;;;;;;5113230;28;20199;-84
2023/12/31 03:07:54;;;;;;;17.40;13.20;;;;;;;;;;5111866;28;20673;-84
2023/12/31 03:10:21;;;;;;;7.83;6.07;;;;;;;;;;5112300;28;20259;-84
2023/12/31 03:12:48;;;;;;;4.77;4.00;;;;;;;;;;5112236;28;20661;-84
2023/12/31 03:15:15;;;;;;;5.33;4.80;;;;;;;;;;5113485;28;20249;-84
2023/12/31 03:17:43;;;;;;;8.50;7.57;;;;;;;;;;5111610;28;20203;-83
2023/12/31 03:20:11;;;;;;;8.53;6.93;;;;;;;;;;5112369;28;20203;-84
2023/12/31 03:22:37;;;;;;;10.83;8.07;;;;;;;;;;5112899;28;20222;-85
2023/12/31 03:25:05;;;;;;;6.50;5.90;;;;;;;;;;5113447;28;20199;-84
2023/12/31 03:27:32;;;;;;;4.93;4.40;;;;;;;;;;5113360;28;20199;-85
2023/12/31 03:29:59;;;;;;;5.37;4.73;;;;;;;;;;5113356;28;20196;-85
2023/12/31 03:32:26;;;;;;;18.53;12.53;;;;;;;;;;5113098;28;20223;-84
2023/12/31 03:34:55;;;;;;;18.83;11.07;;;;;;;;;;5113176;28;20562;-85
2023/12/31 03:37:21;;;;;;;18.47;12.80;;;;;;;;;;5111526;28;20203;-84
2023/12/31 03:39:50;;;;;;;9.37;6.63;;;;;;;;;;5113092;28;20199;-84
2023/12/31 03:42:17;;;;;;;6.73;5.73;;;;;;;;;;5111439;28;20223;-85
2023/12/31 03:44:44;;;;;;;6.53;5.90;;;;;;;;;;5112746;28;20206;-84
2023/12/31 03:47:10;;;;;;;5.87;5.20;;;;;;;;;;5111591;28;20206;-85
2023/12/31 03:49:38;;;;;;;5.77;4.63;;;;;;;;;;5112984;28;20221;-84
2023/12/31 03:52:09;;;;;;;6.07;4.63;;;;;;;;;;5112683;28;20217;-84
2023/12/31 03:54:35;;;;;;;10.57;8.47;;;;;;;;;;5112395;28;20199;-84
2023/12/31 03:57:02;;;;;;;10.13;7.73;;;;;;;;;;5112591;28;20256;-84
2023/12/31 03:59:29;;;;;;;9.10;7.00;;;;;;;;;;5112493;28;20199;-85
2023/12/31 04:01:58;;;;;;;7.27;6.17;;;;;;;;;;5112250;28;20199;-85
2023/12/31 04:04:25;;;;;;;6.07;5.07;;;;;;;;;;5112469;28;20195;-85
2023/12/31 04:06:52;;;;;;;4.90;4.27;;;;;;;;;;5111667;28;21691;-85
2023/12/31 04:09:20;;;;;;;5.47;4.50;;;;;;;;;;5111324;28;20231;-85
2023/12/31 04:11:48;;;;;;;5.17;4.67;;;;;;;;;;5112011;28;20191;-85
2023/12/31 04:14:15;;;;;;;4.97;4.13;;;;;;;;;;5111850;28;20203;-85
2023/12/31 04:16:42;;;;;;;26.33;16.03;;;;;;;;;;5111125;28;20187;-84
2023/12/31 04:19:14;;;;;;;10.63;8.40;;;;;;;;;;5112574;28;20673;-85
2023/12/31 04:21:40;;;;;;;23.33;12.73;;;;;;;;;;5113223;28;20203;-85
2023/12/31 04:24:07;;;;;;;7.17;6.23;;;;;;;;;;5111874;28;20219;-85
2023/12/31 04:26:36;;;;;;;6.43;5.20;;;;;;;;;;5112481;28;20199;-85
2023/12/31 04:29:03;;;;;;;9.87;6.50;;;;;;;;;;5112030;28;20665;-85
2023/12/31 04:31:29;;;;;;;10.27;7.53;;;;;;;;;;5112350;28;20223;-85
2023/12/31 04:33:56;;;;;;;12.70;9.27;;;;;;;;;;5112073;28;20203;-85
2023/12/31 04:36:23;;;;;;;11.13;8.47;;;;;;;;;;5112099;28;20210;-85
2023/12/31 04:38:53;;;;;;;15.50;10.17;;;;;;;;;;5112108;28;20202;-85
2023/12/31 04:41:21;;;;;;;10.90;9.67;;;;;;;;;;5111590;28;20268;-84
2023/12/31 04:43:51;;;;;;;11.83;8.97;;;;;;;;;;5111968;28;20309;-85
2023/12/31 04:46:21;;;;;;;8.37;6.37;;;;;;;;;;5111731;28;20196;-84
2023/12/31 04:48:50;;;;;;;14.13;7.27;;;;;;;;;;5110487;28;20195;-84
2023/12/31 04:51:26;;;;;;;9.73;7.10;;;;;;;;;;5112555;28;20195;-85
2023/12/31 04:53:56;;;;;;;10.13;6.33;;;;;;;;;;5110638;28;20218;-84
2023/12/31 04:56:24;;;;;;;24.03;15.53;;;;;;;;;;5112548;28;20612;-85
2023/12/31 04:58:53;;;;;;;11.53;9.10;;;;;;;;;;5113939;28;20195;-85
2023/12/31 05:01:20;;;;;;;6.13;4.70;;;;;;;;;;5115583;28;20196;-85
2023/12/31 05:03:49;;;;;;;6.43;4.57;;;;;;;;;;5116484;28;20219;-85
2023/12/31 05:06:16;;;;;;;5.17;4.37;;;;;;;;;;5114247;28;20203;-84
2023/12/31 05:08:43;;;;;;;4.70;4.30;;;;;;;;;;5116025;28;20606;-85
2023/12/31 05:11:10;;;;;;;4.17;3.77;;;;;;;;;;5114458;28;20231;-84
2023/12/31 05:13:38;;;;;;;4.53;4.13;;;;;;;;;;5114173;28;20646;-84
2023/12/31 05:16:07;;;;;;;4.10;3.70;;;;;;;;;;5115181;28;20199;-85
2023/12/31 05:18:34;;;;;;;4.67;4.23;;;;;;;;;;5114882;28;20207;-84
2023/12/31 05:21:01;;;;;;;4.67;4.23;;;;;;;;;;5114787;28;20252;-85
2023/12/31 05:23:30;;;;;;;5.93;5.27;;;;;;;;;;5115603;28;20226;-85
2023/12/31 05:25:57;;;;;;;7.70;5.67;;;;;;;;;;5115334;28;20568;-85
2023/12/31 05:28:26;;;;;;;5.37;4.87;;;;;;;;;;5116008;28;20556;-85
2023/12/31 05:30:53;;;;;;;4.83;4.30;;;;;;;;;;5115132;28;20276;-85
2023/12/31 05:33:21;;;;;;;8.97;5.70;;;;;;;;;;5114954;28;20302;-85
2023/12/31 05:35:48;;;;;;;18.23;14.23;;;;;;;;;;5080034;28;20201;-84
2023/12/31 05:38:16;;;;;;;15.33;13.13;;;;;;;;;;5081225;28;20203;-85
2023/12/31 05:40:44;;;;;;;19.47;12.27;;;;;;;;;;5115040;28;20203;-85
2023/12/31 05:43:11;;;;;;;11.70;9.93;;;;;;;;;;5113230;28;20215;-85
2023/12/31 05:45:38;;;;;;;12.10;9.13;;;;;;;;;;5114478;28;20280;-85
2023/12/31 05:48:06;;;;;;;13.83;10.30;;;;;;;;;;5114623;28;20206;-85
2023/12/31 05:50:35;;;;;;;19.27;14.43;;;;;;;;;;5110742;28;20208;-85
2023/12/31 05:53:01;;;;;;;83.47;53.70;;;;;;;;;;5109279;28;20200;-85
2023/12/31 05:55:28;;;;;;;36.80;27.47;;;;;;;;;;5105230;28;20204;-84
2023/12/31 05:57:56;;;;;;;20.63;15.67;;;;;;;;;;5105781;28;20192;-85
2023/12/31 06:00:23;;;;;;;21.90;19.37;;;;;;;;;;5108457;28;20292;-85
2023/12/31 06:02:51;;;;;;;23.73;16.10;;;;;;;;;;5094034;28;20585;-86
2023/12/31 06:05:19;;;;;;;20.57;17.40;;;;;;;;;;5100686;28;20192;-85
2023/12/31 06:07:47;;;;;;;20.07;14.20;;;;;;;;;;5104596;28;20205;-86
2023/12/31 06:10:14;;;;;;;14.27;11.60;;;;;;;;;;5108685;28;20196;-85
2023/12/31 06:12:41;;;;;;;10.87;9.37;;;;;;;;;;5114254;28;20670;-86
2023/12/31 06:15:12;;;;;;;11.33;8.23;;;;;;;;;;5113335;28;20199;-85
2023/12/31 06:17:40;;;;;;;8.33;7.07;;;;;;;;;;5113644;28;20204;-86
2023/12/31 06:20:08;;;;;;;7.67;6.03;;;;;;;;;;5114195;28;20202;-86
2023/12/31 06:22:35;;;;;;;9.13;6.87;;;;;;;;;;5113616;28;20570;-84
2023/12/31 06:25:06;;;;;;;7.83;6.67;;;;;;;;;;5102953;28;20224;-85
2023/12/31 06:27:33;;;;;;;7.77;6.57;;;;;;;;;;5100514;28;20199;-85
2023/12/31 06:30:00;;;;;;;14.33;11.33;;;;;;;;;;5110428;28;20208;-85
2023/12/31 06:32:28;;;;;;;19.13;13.87;;;;;;;;;;5091723;28;20223;-85
2023/12/31 06:34:54;;;;;;;22.93;15.30;;;;;;;;;;5099051;28;20257;-85
2023/12/31 06:37:21;;;;;;;20.33;14.60;;;;;;;;;;5109075;28;20555;-85
2023/12/31 06:39:49;;;;;;;19.47;9.63;;;;;;;;;;5101855;28;20200;-86
2023/12/31 06:42:18;;;;;;;18.60;13.73;;;;;;;;;;5092810;28;20199;-85
2023/12/31 06:44:44;;;;;;;24.90;16.93;;;;;;;;;;5113371;28;20211;-86
2023/12/31 06:47:11;;;;;;;17.63;13.00;;;;;;;;;;5112485;28;20200;-86
2023/12/31 06:49:38;;;;;;;13.23;10.93;;;;;;;;;;5111395;28;20207;-87
2023/12/31 06:52:06;;;;;;;12.20;9.70;;;;;;;;;;5106056;28;20204;-86
2023/12/31 06:54:33;;;;;;;10.33;8.17;;;;;;;;;;5105525;28;20214;-87
2023/12/31 06:56:59;;;;;;;8.97;7.37;;;;;;;;;;5101997;28;20254;-90
2023/12/31 06:59:31;;;;;;;7.83;6.77;;;;;;;;;;5112111;28;20199;-86
2023/12/31 07:01:57;;;;;;;8.67;7.77;;;;;;;;;;5112664;28;20578;-85
2023/12/31 07:04:24;;;;;;;9.20;8.03;;;;;;;;;;5095989;28;20222;-86
2023/12/31 07:06:51;;;;;;;20.97;15.33;;;;;;;;;;5113483;28;20199;-86
2023/12/31 07:09:18;;;;;;;101.17;74.70;;;;;;;;;;5111967;28;20199;-85
2023/12/31 07:11:45;;;;;;;86.43;65.47;;;;;;;;;;5112541;28;20199;-85
2023/12/31 07:14:12;;;;;;;60.30;45.97;;;;;;;;;;5112330;28;20199;-86
2023/12/31 07:16:40;;;;;;;64.37;50.20;;;;;;;;;;5112233;28;20221;-85
2023/12/31 07:19:08;;;;;;;53.60;38.87;;;;;;;;;;5103851;28;20203;-85
2023/12/31 07:21:35;;;;;;;36.67;25.13;;;;;;;;;;5111617;28;20198;-85
2023/12/31 07:24:02;;;;;;;30.17;23.80;;;;;;;;;;5113301;28;20605;-85
2023/12/31 07:26:29;;;;;;;33.60;25.63;;;;;;;;;;5113651;28;20195;-85
2023/12/31 07:28:56;;;;;;;35.93;26.77;;;;;;;;;;5100878;28;20192;-85
2023/12/31 07:31:23;;;;;;;24.77;17.30;;;;;;;;;;5093068;28;20297;-85
2023/12/31 07:33:51;;;;;;;63.03;38.37;;;;;;;;;;5104667;28;20196;-86
2023/12/31 07:36:18;;;;;;;69.03;42.17;;;;;;;;;;5113270;28;20221;-85
2023/12/31 07:38:45;;;;;;;77.17;48.43;;;;;;;;;;5112967;28;20199;-85
2023/12/31 07:41:13;;;;;;;46.37;32.43;;;;;;;;;;5102091;28;20200;-85
2023/12/31 07:43:40;;;;;;;46.87;33.93;;;;;;;;;;5112673;28;20273;-86
2023/12/31 07:46:09;;;;;;;60.67;46.93;;;;;;;;;;5112618;28;20249;-85
2023/12/31 07:48:36;;;;;;;47.10;35.37;;;;;;;;;;5111771;28;20195;-85
2023/12/31 07:51:08;;;;;;;23.97;21.03;;;;;;;;;;5112872;28;20196;-85
2023/12/31 07:53:35;;;;;;;14.37;12.23;;;;;;;;;;5113059;28;20303;-85
2023/12/31 07:56:02;;;;;;;11.83;10.20;;;;;;;;;;5111804;28;20199;-84
2023/12/31 07:58:30;;;;;;;13.07;10.70;;;;;;;;;;5112423;28;20191;-85
2023/12/31 08:00:58;;;;;;;13.93;11.57;;;;;;;;;;5112646;28;20200;-86
2023/12/31 08:03:26;;;;;;;18.20;15.00;;;;;;;;;;5109458;28;20246;-87
2023/12/31 08:05:53;;;;;;;30.57;20.70;;;;;;;;;;5102474;28;20253;-86
2023/12/31 08:08:23;;;;;;;28.40;20.13;;;;;;;;;;5104944;28;20195;-87
2023/12/31 08:10:53;;;;;;;18.57;14.13;;;;;;;;;;5090510;28;20196;-87
2023/12/31 08:13:20;;;;;;;15.87;14.00;;;;;;;;;;5101834;28;20283;-90
2023/12/31 08:15:47;;;;;;;18.17;15.70;;;;;;;;;;5107666;28;20188;-87
2023/12/31 08:18:14;;;;;;;16.13;12.27;;;;;;;;;;5101038;28;20203;-86
2023/12/31 08:20:40;;;;;;;21.27;14.67;;;;;;;;;;5096935;28;20650;-86
2023/12/31 08:23:09;;;;;;;13.43;12.03;;;;;;;;;;5112001;28;20207;-87
2023/12/31 08:25:37;;;;;;;13.43;11.40;;;;;;;;;;5112926;28;20265;-88
2023/12/31 08:28:07;;;;;;;16.53;12.43;;;;;;;;;;5111295;28;20206;-88
2023/12/31 08:30:34;;;;;;;14.30;10.57;;;;;;;;;;5106231;28;20184;-82
2023/12/31 08:33:01;;;;;;;11.30;9.90;;;;;;;;;;5098302;28;20726;-83
2023/12/31 08:35:29;;;;;;;11.77;9.40;;;;;;;;;;5115327;28;20592;-84
2023/12/31 08:37:55;;;;;;;10.47;9.23;;;;;;;;;;5115072;28;20646;-83
2023/12/31 08:40:22;;;;;;;31.83;20.23;;;;;;;;;;5114705;28;20199;-83
2023/12/31 08:42:54;;;;;;;39.53;26.77;;;;;;;;;;5116017;28;20195;-82
2023/12/31 08:45:20;;;;;;;24.57;19.13;;;;;;;;;;5116194;28;20223;-83
2023/12/31 08:47:47;;;;;;;17.87;12.07;;;;;;;;;;5114787;28;20199;-83
2023/12/31 08:50:14;;;;;;;12.33;8.80;;;;;;;;;;5115348;28;20668;-83
2023/12/31 08:52:44;;;;;;;10.80;8.00;;;;;;;;;;5115982;28;20729;-83
2023/12/31 08:55:11;;;;;;;9.17;7.93;;;;;;;;;;5115741;28;20615;-82
2023/12/31 08:57:39;;;;;;;6.83;6.23;;;;;;;;;;5114554;28;20241;-83
2023/12/31 09:00:08;;;;;;;8.77;7.57;;;;;;;;;;5105802;28;20195;-83
2023/12/31 09:02:35;;;;;;;7.70;6.90;;;;;;;;;;5116187;28;20210;-82
2023/12/31 09:05:05;;;;;;;6.77;6.00;;;;;;;;;;5114687;28;20215;-83
2023/12/31 09:07:34;;;;;;;5.90;5.10;;;;;;;;;;5114094;28;20191;-82
2023/12/31 09:10:01;;;;;;;5.93;4.97;;;;;;;;;;5115086;28;20233;-83
2023/12/31 09:12:28;;;;;;;5.83;5.23;;;;;;;;;;5114297;28;20207;-83
2023/12/31 09:14:55;;;;;;;6.13;4.83;;;;;;;;;;5115342;28;20200;-82
2023/12/31 09:17:23;;;;;;;5.47;4.73;;;;;;;;;;5114129;28;20199;-82
2023/12/31 09:19:50;;;;;;;16.87;8.97;;;;;;;;;;5115320;28;20199;-82
2023/12/31 09:22:17;;;;;;;9.57;7.87;;;;;;;;;;5115527;28;20197;-82
2023/12/31 09:24:45;;;;;;;8.00;6.07;;;;;;;;;;5113586;28;20219;-82
2023/12/31 09:27:12;;;;;;;6.23;5.37;;;;;;;;;;5115054;28;20206;-81
2023/12/31 09:29:39;;;;;;;5.97;4.47;;;;;;;;;;5115209;28;20213;-81
2023/12/31 09:32:06;;;;;;;6.60;5.37;;;;;;;;;;5115685;28;20232;-82
2023/12/31 09:34:34;;;;;;;11.47;6.83;;;;;;;;;;5113902;28;20207;-82
2023/12/31 09:37:02;;;;;;;6.57;5.77;;;;;;;;;;5114020;28;20639;-82
2023/12/31 09:39:28;;;;;;;4.40;4.00;;;;;;;;;;5114237;28;20192;-82
2023/12/31 09:42:05;;;;;;;4.47;4.07;;;;;;;;;;5114475;28;20252;-81
2023/12/31 09:44:32;;;;;;;5.20;4.70;;;;;;;;;;5092598;28;20702;-82
2023/12/31 09:47:05;;;;;;;4.97;4.30;;;;;;;;;;5114896;28;20195;-81
2023/12/31 09:49:35;;;;;;;5.67;5.13;;;;;;;;;;5115844;28;20199;-82
2023/12/31 09:52:04;;;;;;;8.10;6.17;;;;;;;;;;5114532;28;20665;-82
2023/12/31 09:54:32;;;;;;;6.13;5.63;;;;;;;;;;5115139;28;20202;-82
2023/12/31 09:56:59;;;;;;;9.20;7.00;;;;;;;;;;5113250;28;20661;-82
2023/12/31 09:59:27;;;;;;;5.90;5.30;;;;;;;;;;5114797;28;20564;-82
2023/12/31 10:01:57;;;;;;;9.90;6.57;;;;;;;;;;5113230;28;20203;-82
2023/12/31 10:04:24;;;;;;;6.53;5.40;;;;;;;;;;5114529;28;20219;-82
2023/12/31 10:06:54;;;;;;;6.77;5.20;;;;;;;;;;5114170;28;20204;-82
2023/12/31 10:09:23;;;;;;;9.63;7.33;;;;;;;;;;5113186;28;20195;-82
2023/12/31 10:11:50;;;;;;;8.03;5.90;;;;;;;;;;5105157;28;20566;-82
2023/12/31 10:14:17;;;;;;;7.33;5.73;;;;;;;;;;5113278;28;20210;-82
2023/12/31 10:16:44;;;;;;;6.47;5.50;;;;;;;;;;5106888;28;20623;-82
2023/12/31 10:19:11;;;;;;;5.97;5.40;;;;;;;;;;5111372;28;20191;-82
2023/12/31 10:21:38;;;;;;;7.13;5.07;;;;;;;;;;5098216;28;20279;-84
2023/12/31 10:24:07;;;;;;;5.80;5.20;;;;;;;;;;5113978;28;20198;-81
2023/12/31 10:26:34;;;;;;;5.30;4.80;;;;;;;;;;5114243;28;20199;-82
2023/12/31 10:29:04;;;;;;;7.43;6.13;;;;;;;;;;5113775;28;20195;-82
2023/12/31 10:31:31;;;;;;;8.33;6.17;;;;;;;;;;5112929;28;20272;-82
2023/12/31 10:33:58;;;;;;;5.70;5.03;;;;;;;;;;5113902;28;20270;-82
2023/12/31 10:36:25;;;;;;;6.83;5.10;;;;;;;;;;5112339;28;20290;-81
2023/12/31 10:38:53;;;;;;;6.10;5.50;;;;;;;;;;5112861;28;20200;-82
2023/12/31 10:41:24;;;;;;;6.67;5.97;;;;;;;;;;5112843;28;20287;-82
2023/12/31 10:43:53;;;;;;;6.93;5.40;;;;;;;;;;5113399;28;20198;-82
2023/12/31 10:46:20;;;;;;;12.13;9.70;;;;;;;;;;5113563;28;20272;-81
2023/12/31 10:48:48;;;;;;;9.10;6.60;;;;;;;;;;5113637;28;20562;-81
2023/12/31 10:51:23;;;;;;;10.10;8.30;;;;;;;;;;5112105;28;20203;-81
2023/12/31 10:53:52;;;;;;;8.97;8.07;;;;;;;;;;5113736;28;20207;-81
2023/12/31 10:56:21;;;;;;;6.97;6.13;;;;;;;;;;5112908;28;20260;-81
2023/12/31 10:58:51;;;;;;;11.60;8.43;;;;;;;;;;5112314;28;20226;-83
2023/12/31 11:01:18;;;;;;;9.20;7.47;;;;;;;;;;5113122;28;20238;-81
2023/12/31 11:03:50;;;;;;;10.20;8.23;;;;;;;;;;5112440;28;20191;-81
2023/12/31 11:06:17;;;;;;;10.20;7.93;;;;;;;;;;5112970;28;20252;-82
2023/12/31 11:08:46;;;;;;;9.10;8.20;;;;;;;;;;5112257;28;20188;-82
2023/12/31 11:11:14;;;;;;;10.97;9.80;;;;;;;;;;5112214;28;20650;-81
2023/12/31 11:13:44;;;;;;;15.60;10.07;;;;;;;;;;5112382;28;20196;-82
2023/12/31 11:16:24;;;;;;;13.77;11.17;;;;;;;;;;5113896;28;20225;-81
2023/12/31 11:19:30;;;;;;;16.30;11.67;;;;;;;;;;5113294;28;20195;-82
2023/12/31 11:22:05;;;;;;;12.23;10.57;;;;;;;;;;5112688;28;20214;-81
2023/12/31 11:24:32;;;;;;;11.90;10.70;;;;;;;;;;5072178;28;20200;-82
2023/12/31 11:27:08;;;;;;;13.13;11.60;;;;;;;;;;5072348;28;20204;-82
2023/12/31 11:29:36;;;;;;;14.90;13.30;;;;;;;;;;5072589;28;20207;-83
2023/12/31 11:32:14;;;;;;;17.53;14.30;;;;;;;;;;5091001;28;20221;-79
2023/12/31 11:34:41;;;;;;;14.20;10.53;;;;;;;;;;5112189;28;20192;-79
2023/12/31 11:37:08;;;;;;;18.30;12.73;;;;;;;;;;5111661;28;20203;-79
2023/12/31 11:39:35;;;;;;;14.60;11.33;;;;;;;;;;5112455;28;20200;-79
2023/12/31 11:42:09;;;;;;;13.40;11.37;;;;;;;;;;5111762;28;20203;-79
2023/12/31 11:44:38;;;;;;;13.63;11.20;;;;;;;;;;5111768;28;20621;-79
2023/12/31 11:47:12;;;;;;;10.50;9.17;;;;;;;;;;5113065;28;20210;-79
2023/12/31 11:49:41;;;;;;;11.43;8.13;;;;;;;;;;5113286;28;20657;-89
2023/12/31 11:52:09;;;;;;;8.30;7.37;;;;;;;;;;5114405;28;20202;-94
2023/12/31 11:54:37;;;;;;;11.13;8.50;;;;;;;;;;5115202;28;20195;-89
2023/12/31 11:57:08;;;;;;;11.23;9.00;;;;;;;;;;5114817;28;20195;-92
2023/12/31 11:59:36;;;;;;;15.03;10.57;;;;;;;;;;5114207;28;20612;-78
2023/12/31 12:02:08;;;;;;;13.10;10.50;;;;;;;;;;5112817;28;20191;-77
2023/12/31 12:04:35;;;;;;;12.90;11.60;;;;;;;;;;5100406;28;20248;-77
2023/12/31 12:07:02;;;;;;;13.93;10.30;;;;;;;;;;5111899;28;20319;-87
2023/12/31 12:09:31;;;;;;;15.70;12.53;;;;;;;;;;5112785;28;20195;-91
2023/12/31 12:12:01;;;;;;;18.40;14.47;;;;;;;;;;5113045;28;20665;-90
2023/12/31 12:14:28;;;;;;;16.00;12.57;;;;;;;;;;5113420;28;20191;-89
2023/12/31 12:16:58;;;;;;;17.47;13.60;;;;;;;;;;5113092;28;20196;-86
2023/12/31 12:19:27;;;;;;;36.70;21.80;;;;;;;;;;5112493;28;20199;-87
2023/12/31 12:21:54;;;;;;;21.80;17.03;;;;;;;;;;5112191;28;20192;-86
2023/12/31 12:24:23;;;;;;;19.90;16.63;;;;;;;;;;5112377;28;20281;-87
2023/12/31 12:26:50;;;;;;;26.80;19.80;;;;;;;;;;5112460;28;20237;-87
2023/12/31 12:29:18;;;;;;;17.97;14.60;;;;;;;;;;5110763;28;20196;-88
2023/12/31 12:31:46;;;;;;;20.30;15.77;;;;;;;;;;5113206;28;20235;-87
2023/12/31 12:34:14;;;;;;;19.13;17.07;;;;;;;;;;5110751;28;20232;-87
2023/12/31 12:36:45;;;;;;;25.13;18.23;;;;;;;;;;5111510;28;20199;-87
2023/12/31 12:39:15;;;;;;;22.23;17.50;;;;;;;;;;5112508;28;20601;-87
2023/12/31 12:41:45;;;;;;;31.67;24.33;;;;;;;;;;5111270;28;20199;-87
2023/12/31 12:44:13;;;;;;;32.13;28.00;;;;;;;;;;5113274;28;20197;-88
2023/12/31 12:46:41;;;;;;;35.00;31.00;;;;;;;;;;5094764;28;20220;-84
2023/12/31 12:49:08;;;;;;;28.03;24.93;;;;;;;;;;5093006;28;20199;-87
2023/12/31 12:51:35;;;;;;;22.30;19.90;;;;;;;;;;5112257;28;20196;-88
2023/12/31 12:54:05;;;;;;;23.40;19.50;;;;;;;;;;5112464;28;20646;-87
2023/12/31 12:56:32;;;;;;;29.53;21.83;;;;;;;;;;5112928;28;20260;-88
2023/12/31 12:58:59;;;;;;;19.60;17.30;;;;;;;;;;5112446;28;20260;-87
2023/12/31 13:01:27;;;;;;;25.90;18.40;;;;;;;;;;5112348;28;20204;-87
2023/12/31 13:03:54;;;;;;;23.73;16.97;;;;;;;;;;5111556;28;20217;-88
2023/12/31 13:06:21;;;;;;;21.80;15.93;;;;;;;;;;5111792;28;20223;-87
2023/12/31 13:08:50;;;;;;;21.33;16.60;;;;;;;;;;5111163;28;20604;-88
2023/12/31 13:11:19;;;;;;;20.33;15.63;;;;;;;;;;5111110;28;20231;-87
2023/12/31 13:13:46;;;;;;;18.30;14.83;;;;;;;;;;5111886;28;20204;-87
2023/12/31 13:16:13;;;;;;;18.70;14.00;;;;;;;;;;5112273;28;20196;-89
2023/12/31 13:18:40;;;;;;;17.57;13.40;;;;;;;;;;5112278;28;20662;-87
2023/12/31 13:21:06;;;;;;;18.33;13.97;;;;;;;;;;5115505;28;20669;-87
2023/12/31 13:23:33;;;;;;;16.77;13.13;;;;;;;;;;5115485;28;20227;-86
2023/12/31 13:26:00;;;;;;;21.63;14.57;;;;;;;;;;5115491;28;20226;-85
2023/12/31 13:28:31;;;;;;;17.47;12.47;;;;;;;;;;5116159;28;20202;-86
2023/12/31 13:31:00;;;;;;;15.37;12.77;;;;;;;;;;5114693;28;20227;-86
2023/12/31 13:33:27;;;;;;;15.37;12.33;;;;;;;;;;5108806;28;20191;-85
2023/12/31 13:35:54;;;;;;;13.27;11.67;;;;;;;;;;5114527;28;20196;-86
2023/12/31 13:38:21;;;;;;;12.03;8.90;;;;;;;;;;5114820;28;20202;-86
2023/12/31 13:40:50;;;;;;;11.57;9.17;;;;;;;;;;5105681;28;20199;-85
2023/12/31 13:43:17;;;;;;;10.53;9.43;;;;;;;;;;5113855;28;20210;-85
2023/12/31 13:45:45;;;;;;;12.50;10.17;;;;;;;;;;5114935;28;20226;-85
2023/12/31 13:48:13;;;;;;;15.87;10.70;;;;;;;;;;5114826;28;20231;-85
2023/12/31 13:50:40;;;;;;;13.53;10.07;;;;;;;;;;5114785;28;20250;-85
2023/12/31 13:53:07;;;;;;;11.33;10.30;;;;;;;;;;5114783;28;20630;-85
2023/12/31 13:55:34;;;;;;;12.40;10.73;;;;;;;;;;5115093;28;20196;-86
2023/12/31 13:58:01;;;;;;;14.17;11.87;;;;;;;;;;5114975;28;20203;-83
2023/12/31 14:00:28;;;;;;;13.77;9.53;;;;;;;;;;5114564;28;20206;-83
2023/12/31 14:02:56;;;;;;;18.17;14.93;;;;;;;;;;5114833;28;20195;-82
2023/12/31 14:05:23;;;;;;;42.43;31.37;;;;;;;;;;5114593;28;20199;-82
2023/12/31 14:07:51;;;;;;;39.33;27.20;;;;;;;;;;5114823;28;20194;-82
2023/12/31 14:10:18;;;;;;;37.93;25.60;;;;;;;;;;5112847;28;20206;-82
2023/12/31 14:12:45;;;;;;;56.70;42.17;;;;;;;;;;5113644;28;20195;-82
2023/12/31 14:15:11;;;;;;;27.87;24.13;;;;;;;;;;5114224;28;20195;-82
2023/12/31 14:17:38;;;;;;;41.40;25.93;;;;;;;;;;5114156;28;20260;-82
2023/12/31 14:20:09;;;;;;;41.80;30.27;;;;;;;;;;5114930;28;20200;-82
2023/12/31 14:22:35;;;;;;;65.80;41.23;;;;;;;;;;5113253;28;20203;-82
2023/12/31 14:25:02;;;;;;;43.27;31.07;;;;;;;;;;5114103;28;20255;-82
2023/12/31 14:27:29;;;;;;;46.13;31.40;;;;;;;;;;5114556;28;20226;-82
2023/12/31 14:29:56;;;;;;;61.70;39.93;;;;;;;;;;5113838;28;20195;-82
2023/12/31 14:32:22;;;;;;;53.20;35.07;;;;;;;;;;5112878;28;20226;-82
2023/12/31 14:34:52;;;;;;;47.67;28.90;;;;;;;;;;5114553;28;20195;-81